createdAt,value
2017-07-08T00:00:03.370Z,975.3
2017-07-08T00:01:05.681Z,975.3
2017-07-08T00:02:07.908Z,975.3
2017-07-08T00:03:10.106Z,975.4
2017-07-08T00:04:12.320Z,975.4
2017-07-08T00:05:14.520Z,975.3
2017-07-08T00:06:16.689Z,975.3
2017-07-08T00:07:18.920Z,975.3
2017-07-08T00:08:21.173Z,975.4
2017-07-08T00:09:23.411Z,975.4
2017-07-08T00:10:25.661Z,975.4
2017-07-08T00:11:27.959Z,975.4
2017-07-08T00:12:30.197Z,975.4
2017-07-08T00:13:32.465Z,975.4
2017-07-08T00:14:34.684Z,975.4
2017-07-08T00:15:36.931Z,975.4
2017-07-08T00:16:39.100Z,975.4
2017-07-08T00:17:41.325Z,975.3
2017-07-08T00:18:43.549Z,975.3
2017-07-08T00:19:45.853Z,975.3
2017-07-08T00:20:48.065Z,975.3
2017-07-08T00:21:50.412Z,975.3
2017-07-08T00:22:52.742Z,975.3
2017-07-08T00:23:54.951Z,975.3
2017-07-08T00:24:57.202Z,975.3
2017-07-08T00:25:59.544Z,975.3
2017-07-08T00:27:01.806Z,975.3
2017-07-08T00:28:04.059Z,975.3
2017-07-08T00:29:06.381Z,975.3
2017-07-08T00:30:08.703Z,975.2
2017-07-08T00:31:11.027Z,975.3
2017-07-08T00:32:13.039Z,975.3
2017-07-08T00:33:15.179Z,975.3
2017-07-08T00:34:17.510Z,975.2
2017-07-08T00:35:19.764Z,975.2
2017-07-08T00:36:22.009Z,975.2
2017-07-08T00:37:24.375Z,975.3
2017-07-08T00:38:26.728Z,975.3
2017-07-08T00:39:28.930Z,975.3
2017-07-08T00:40:31.186Z,975.2
2017-07-08T00:41:33.487Z,975.2
2017-07-08T00:42:35.730Z,975.2
2017-07-08T00:43:37.922Z,975.3
2017-07-08T00:44:40.243Z,975.3
2017-07-08T00:45:42.618Z,975.3
2017-07-08T00:46:44.874Z,975.2
2017-07-08T00:47:47.221Z,975.3
2017-07-08T00:48:49.381Z,975.2
2017-07-08T00:49:51.681Z,975.2
2017-07-08T00:50:53.843Z,975.3
2017-07-08T00:51:56.105Z,975.3
2017-07-08T00:52:58.456Z,975.3
2017-07-08T00:54:00.698Z,975.2
2017-07-08T00:55:03.040Z,975.3
2017-07-08T00:56:05.280Z,975.3
2017-07-08T00:57:07.578Z,975.3
2017-07-08T00:58:09.709Z,975.3
2017-07-08T00:59:11.941Z,975.3
2017-07-08T01:00:14.342Z,975.3
2017-07-08T01:01:16.545Z,975.3
2017-07-08T01:02:18.711Z,975.3
2017-07-08T01:03:20.930Z,975.3
2017-07-08T01:04:23.149Z,975.3
2017-07-08T01:05:25.570Z,975.3
2017-07-08T01:06:27.636Z,975.3
2017-07-08T01:07:29.899Z,975.3
2017-07-08T01:08:32.296Z,975.3
2017-07-08T01:09:34.507Z,975.3
2017-07-08T01:10:36.773Z,975.3
2017-07-08T01:11:39.063Z,975.3
2017-07-08T01:12:41.285Z,975.3
2017-07-08T01:13:43.500Z,975.3
2017-07-08T01:14:45.791Z,975.2
2017-07-08T01:15:47.923Z,975.3
2017-07-08T01:16:50.097Z,975.3
2017-07-08T01:17:52.445Z,975.3
2017-07-08T01:18:54.628Z,975.3
2017-07-08T01:19:56.808Z,975.3
2017-07-08T01:20:59.130Z,975.3
2017-07-08T01:22:01.331Z,975.3
2017-07-08T01:23:03.652Z,975.3
2017-07-08T01:24:05.844Z,975.3
2017-07-08T01:25:08.144Z,975.3
2017-07-08T01:26:10.486Z,975.3
2017-07-08T01:27:12.830Z,975.2
2017-07-08T01:28:14.913Z,975.2
2017-07-08T01:29:17.176Z,975.3
2017-07-08T01:30:19.426Z,975.2
2017-07-08T01:31:21.586Z,975.2
2017-07-08T01:32:23.747Z,975.3
2017-07-08T01:33:26.078Z,975.2
2017-07-08T01:34:28.394Z,975.2
2017-07-08T01:35:30.698Z,975.2
2017-07-08T01:36:32.971Z,975.2
2017-07-08T01:37:35.327Z,975.2
2017-07-08T01:38:37.547Z,975.2
2017-07-08T01:39:39.867Z,975.2
2017-07-08T01:40:42.111Z,975.2
2017-07-08T01:41:44.278Z,975.2
2017-07-08T01:42:46.461Z,975.2
2017-07-08T01:43:48.760Z,975.2
2017-07-08T01:44:50.922Z,975.2
2017-07-08T01:45:53.261Z,975.2
2017-07-08T01:46:55.492Z,975.2
2017-07-08T01:47:57.775Z,975.2
2017-07-08T01:48:59.915Z,975.2
2017-07-08T01:50:02.300Z,975.3
2017-07-08T01:51:04.538Z,975.3
2017-07-08T01:52:06.916Z,975.3
2017-07-08T01:53:09.286Z,975.3
2017-07-08T01:54:11.548Z,975.3
2017-07-08T01:55:13.822Z,975.3
2017-07-08T01:56:16.074Z,975.3
2017-07-08T01:57:18.363Z,975.3
2017-07-08T01:58:20.636Z,975.2
2017-07-08T01:59:22.838Z,975.3
2017-07-08T02:00:25.058Z,975.3
2017-07-08T02:01:27.339Z,975.3
2017-07-08T02:02:29.545Z,975.3
2017-07-08T02:03:31.841Z,975.3
2017-07-08T02:04:34.152Z,975.3
2017-07-08T02:05:36.396Z,975.2
2017-07-08T02:06:38.691Z,975.3
2017-07-08T02:07:40.967Z,975.3
2017-07-08T02:08:43.244Z,975.3
2017-07-08T02:09:45.528Z,975.3
2017-07-08T02:10:47.831Z,975.3
2017-07-08T02:11:50.045Z,975.3
2017-07-08T02:12:52.204Z,975.3
2017-07-08T02:13:54.506Z,975.3
2017-07-08T02:14:56.706Z,975.3
2017-07-08T02:15:58.946Z,975.3
2017-07-08T02:17:01.204Z,975.3
2017-07-08T02:18:03.491Z,975.3
2017-07-08T02:19:05.759Z,975.3
2017-07-08T02:20:08.046Z,975.3
2017-07-08T02:21:10.297Z,975.3
2017-07-08T02:22:12.525Z,975.4
2017-07-08T02:23:14.772Z,975.4
2017-07-08T02:24:16.930Z,975.4
2017-07-08T02:25:19.091Z,975.4
2017-07-08T02:26:21.388Z,975.4
2017-07-08T02:27:23.558Z,975.4
2017-07-08T02:28:25.775Z,975.4
2017-07-08T02:29:28.141Z,975.4
2017-07-08T02:30:30.279Z,975.5
2017-07-08T02:31:32.466Z,975.4
2017-07-08T02:32:34.841Z,975.4
2017-07-08T02:33:37.046Z,975.4
2017-07-08T02:34:39.430Z,975.4
2017-07-08T02:35:41.622Z,975.4
2017-07-08T02:36:43.914Z,975.4
2017-07-08T02:37:46.153Z,975.4
2017-07-08T02:38:48.387Z,975.4
2017-07-08T02:39:50.702Z,975.4
2017-07-08T02:40:52.938Z,975.4
2017-07-08T02:41:55.182Z,975.4
2017-07-08T02:42:57.386Z,975.4
2017-07-08T02:43:59.719Z,975.5
2017-07-08T02:45:02.136Z,975.5
2017-07-08T02:46:04.276Z,975.5
2017-07-08T02:47:06.491Z,975.5
2017-07-08T02:48:08.752Z,975.5
2017-07-08T02:49:10.931Z,975.5
2017-07-08T02:50:13.139Z,975.4
2017-07-08T02:51:15.329Z,975.4
2017-07-08T02:52:17.730Z,975.5
2017-07-08T02:53:19.974Z,975.5
2017-07-08T02:54:22.159Z,975.4
2017-07-08T02:55:24.446Z,975.4
2017-07-08T02:56:26.790Z,975.5
2017-07-08T02:57:28.890Z,975.5
2017-07-08T02:58:31.137Z,975.5
2017-07-08T02:59:33.421Z,975.5
2017-07-08T03:00:35.584Z,975.5
2017-07-08T03:01:37.836Z,975.5
2017-07-08T03:02:40.071Z,975.6
2017-07-08T03:03:42.187Z,975.5
2017-07-08T03:04:44.423Z,975.6
2017-07-08T03:05:46.618Z,975.6
2017-07-08T03:06:48.966Z,975.5
2017-07-08T03:07:51.190Z,975.6
2017-07-08T03:08:53.496Z,975.6
2017-07-08T03:09:55.800Z,975.5
2017-07-08T03:10:58.103Z,975.6
2017-07-08T03:12:00.329Z,975.6
2017-07-08T03:13:02.575Z,975.6
2017-07-08T03:14:04.772Z,975.6
2017-07-08T03:15:06.948Z,975.6
2017-07-08T03:16:09.153Z,975.6
2017-07-08T03:17:11.412Z,975.6
2017-07-08T03:18:13.601Z,975.5
2017-07-08T03:19:15.869Z,975.5
2017-07-08T03:20:18.129Z,975.5
2017-07-08T03:21:20.376Z,975.5
2017-07-08T03:22:22.626Z,975.5
2017-07-08T03:23:24.819Z,975.5
2017-07-08T03:24:27.055Z,975.4
2017-07-08T03:25:29.762Z,975.5
2017-07-08T03:26:32.075Z,975.5
2017-07-08T03:27:34.251Z,975.5
2017-07-08T03:28:36.624Z,975.5
2017-07-08T03:29:38.967Z,975.5
2017-07-08T03:30:41.273Z,975.4
2017-07-08T03:31:43.452Z,975.5
2017-07-08T03:32:45.698Z,975.5
2017-07-08T03:33:48.030Z,975.5
2017-07-08T03:34:50.393Z,975.5
2017-07-08T03:35:52.587Z,975.5
2017-07-08T03:36:54.846Z,975.5
2017-07-08T03:37:57.177Z,975.5
2017-07-08T03:38:59.491Z,975.5
2017-07-08T03:40:01.696Z,975.5
2017-07-08T03:41:03.968Z,975.5
2017-07-08T03:42:06.198Z,975.5
2017-07-08T03:43:08.465Z,975.5
2017-07-08T03:44:10.683Z,975.5
2017-07-08T03:45:12.893Z,975.5
2017-07-08T03:46:15.113Z,975.5
2017-07-08T03:47:17.280Z,975.5
2017-07-08T03:48:19.538Z,975.5
2017-07-08T03:49:21.936Z,975.4
2017-07-08T03:50:24.076Z,975.5
2017-07-08T03:51:26.197Z,975.5
2017-07-08T03:52:28.437Z,975.4
2017-07-08T03:53:30.606Z,975.4
2017-07-08T03:54:32.976Z,975.4
2017-07-08T03:55:35.098Z,975.4
2017-07-08T03:56:37.314Z,975.4
2017-07-08T03:57:39.549Z,975.4
2017-07-08T03:58:41.779Z,975.4
2017-07-08T03:59:44.009Z,975.4
2017-07-08T04:00:46.165Z,975.4
2017-07-08T04:01:48.404Z,975.4
2017-07-08T04:02:50.687Z,975.4
2017-07-08T04:03:53.063Z,975.4
2017-07-08T04:04:55.364Z,975.4
2017-07-08T04:05:57.559Z,975.4
2017-07-08T04:06:59.838Z,975.4
2017-07-08T04:08:02.132Z,975.3
2017-07-08T04:09:04.443Z,975.3
2017-07-08T04:10:06.748Z,975.3
2017-07-08T04:11:09.077Z,975.3
2017-07-08T04:12:11.218Z,975.3
2017-07-08T04:13:13.491Z,975.3
2017-07-08T04:14:15.734Z,975.4
2017-07-08T04:15:18.043Z,975.3
2017-07-08T04:16:20.309Z,975.4
2017-07-08T04:17:22.606Z,975.4
2017-07-08T04:18:24.888Z,975.4
2017-07-08T04:19:27.140Z,975.4
2017-07-08T04:20:29.452Z,975.4
2017-07-08T04:21:31.737Z,975.4
2017-07-08T04:22:34.030Z,975.4
2017-07-08T04:23:36.254Z,975.4
2017-07-08T04:24:38.414Z,975.4
2017-07-08T04:25:40.601Z,975.4
2017-07-08T04:26:42.910Z,975.5
2017-07-08T04:27:44.992Z,975.4
2017-07-08T04:28:47.100Z,975.5
2017-07-08T04:29:49.433Z,975.5
2017-07-08T04:30:51.785Z,975.5
2017-07-08T04:31:54.004Z,975.5
2017-07-08T04:32:56.359Z,975.5
2017-07-08T04:33:58.560Z,975.5
2017-07-08T04:35:00.785Z,975.5
2017-07-08T04:36:02.942Z,975.5
2017-07-08T04:37:05.211Z,975.5
2017-07-08T04:38:07.417Z,975.5
2017-07-08T04:39:09.752Z,975.5
2017-07-08T04:40:11.953Z,975.5
2017-07-08T04:41:14.311Z,975.5
2017-07-08T04:42:16.601Z,975.5
2017-07-08T04:43:18.888Z,975.4
2017-07-08T04:44:21.135Z,975.4
2017-07-08T04:45:23.249Z,975.4
2017-07-08T04:46:25.560Z,975.4
2017-07-08T04:47:27.704Z,975.4
2017-07-08T04:48:29.909Z,975.4
2017-07-08T04:49:32.224Z,975.4
2017-07-08T04:50:34.468Z,975.5
2017-07-08T04:51:36.795Z,975.4
2017-07-08T04:52:39.062Z,975.4
2017-07-08T04:53:41.249Z,975.5
2017-07-08T04:54:43.493Z,975.5
2017-07-08T04:55:45.672Z,975.5
2017-07-08T04:56:47.981Z,975.6
2017-07-08T04:57:50.189Z,975.5
2017-07-08T04:58:52.424Z,975.5
2017-07-08T04:59:54.722Z,975.6
2017-07-08T05:00:56.828Z,975.6
2017-07-08T05:01:59.097Z,975.5
2017-07-08T05:03:01.369Z,975.6
2017-07-08T05:04:03.612Z,975.6
2017-07-08T05:05:05.873Z,975.5
2017-07-08T05:06:08.232Z,975.6
2017-07-08T05:07:10.602Z,975.6
2017-07-08T05:08:12.928Z,975.6
2017-07-08T05:09:15.187Z,975.6
2017-07-08T05:10:17.478Z,975.5
2017-07-08T05:11:19.678Z,975.5
2017-07-08T05:12:22.010Z,975.5
2017-07-08T05:13:24.408Z,975.5
2017-07-08T05:14:26.700Z,975.5
2017-07-08T05:15:28.900Z,975.6
2017-07-08T05:16:31.193Z,975.6
2017-07-08T05:17:33.458Z,975.6
2017-07-08T05:18:35.645Z,975.5
2017-07-08T05:19:37.834Z,975.5
2017-07-08T05:20:40.078Z,975.6
2017-07-08T05:21:42.380Z,975.6
2017-07-08T05:22:44.699Z,975.6
2017-07-08T05:23:46.923Z,975.6
2017-07-08T05:24:49.033Z,975.5
2017-07-08T05:25:51.233Z,975.6
2017-07-08T05:26:53.490Z,975.6
2017-07-08T05:27:55.614Z,975.6
2017-07-08T05:28:57.905Z,975.6
2017-07-08T05:30:00.126Z,975.6
2017-07-08T05:31:02.295Z,975.6
2017-07-08T05:32:04.575Z,975.6
2017-07-08T05:33:07.128Z,975.6
2017-07-08T05:34:09.656Z,975.6
2017-07-08T05:35:11.867Z,975.6
2017-07-08T05:36:14.245Z,975.6
2017-07-08T05:37:16.501Z,975.6
2017-07-08T05:38:18.813Z,975.6
2017-07-08T05:39:21.088Z,975.6
2017-07-08T05:40:23.331Z,975.6
2017-07-08T05:41:25.649Z,975.7
2017-07-08T05:42:27.995Z,975.6
2017-07-08T05:43:30.259Z,975.7
2017-07-08T05:44:32.729Z,975.7
2017-07-08T05:45:34.878Z,975.7
2017-07-08T05:46:37.342Z,975.8
2017-07-08T05:47:39.583Z,975.7
2017-07-08T05:48:41.828Z,975.7
2017-07-08T05:49:44.135Z,975.7
2017-07-08T05:50:46.552Z,975.7
2017-07-08T05:51:48.848Z,975.8
2017-07-08T05:52:51.121Z,975.8
2017-07-08T05:53:53.385Z,975.7
2017-07-08T05:54:55.756Z,975.7
2017-07-08T05:55:58.045Z,975.8
2017-07-08T05:57:00.329Z,975.7
2017-07-08T05:58:02.647Z,975.7
2017-07-08T05:59:04.941Z,975.8
2017-07-08T06:00:07.219Z,975.7
2017-07-08T06:01:09.430Z,975.7
2017-07-08T06:02:11.610Z,975.7
2017-07-08T06:03:13.848Z,975.7
2017-07-08T06:04:16.118Z,975.7
2017-07-08T06:05:18.415Z,975.7
2017-07-08T06:06:20.639Z,975.7
2017-07-08T06:07:22.766Z,975.7
2017-07-08T06:08:25.098Z,975.7
2017-07-08T06:09:27.410Z,975.7
2017-07-08T06:10:29.734Z,975.7
2017-07-08T06:11:31.832Z,975.7
2017-07-08T06:12:34.480Z,975.7
2017-07-08T06:13:36.969Z,975.7
2017-07-08T06:14:39.422Z,975.8
2017-07-08T06:15:41.739Z,975.7
2017-07-08T06:16:44.128Z,975.8
2017-07-08T06:17:46.586Z,975.8
2017-07-08T06:18:48.869Z,975.8
2017-07-08T06:19:51.270Z,975.8
2017-07-08T06:20:53.691Z,975.8
2017-07-08T06:21:56.102Z,975.8
2017-07-08T06:22:59.187Z,975.8
2017-07-08T06:24:01.448Z,975.9
2017-07-08T06:25:03.843Z,975.9
2017-07-08T06:26:06.256Z,975.9
2017-07-08T06:27:08.678Z,975.9
2017-07-08T06:28:11.075Z,975.9
2017-07-08T06:29:13.375Z,975.9
2017-07-08T06:30:15.776Z,975.9
2017-07-08T06:31:18.029Z,975.9
2017-07-08T06:32:20.557Z,975.9
2017-07-08T06:33:22.905Z,976.0
2017-07-08T06:34:25.312Z,976.0
2017-07-08T06:35:27.597Z,976.0
2017-07-08T06:36:29.844Z,976.0
2017-07-08T06:37:32.238Z,976.1
2017-07-08T06:38:34.631Z,976.1
2017-07-08T06:39:36.850Z,976.1
2017-07-08T06:40:39.164Z,976.1
2017-07-08T06:41:41.419Z,976.1
2017-07-08T06:42:43.787Z,976.1
2017-07-08T06:43:46.211Z,976.0
2017-07-08T06:44:48.559Z,976.1
2017-07-08T06:45:50.908Z,976.1
2017-07-08T06:46:53.281Z,976.0
2017-07-08T06:47:55.694Z,976.0
2017-07-08T06:48:58.106Z,976.0
2017-07-08T06:50:00.554Z,975.9
2017-07-08T06:51:02.957Z,976.0
2017-07-08T06:52:05.307Z,976.0
2017-07-08T06:53:07.797Z,976.0
2017-07-08T06:54:10.126Z,976.0
2017-07-08T06:55:12.526Z,975.9
2017-07-08T06:56:15.006Z,976.0
2017-07-08T06:57:17.443Z,976.0
2017-07-08T06:58:19.734Z,976.0
2017-07-08T06:59:22.225Z,976.0
2017-07-08T07:00:24.553Z,976.1
2017-07-08T07:01:27.026Z,976.0
2017-07-08T07:02:29.319Z,976.0
2017-07-08T07:03:31.678Z,976.1
2017-07-08T07:04:34.042Z,976.1
2017-07-08T07:05:36.343Z,976.1
2017-07-08T07:06:38.636Z,976.2
2017-07-08T07:07:41.001Z,976.2
2017-07-08T07:08:43.337Z,976.2
2017-07-08T07:09:45.743Z,976.2
2017-07-08T07:10:48.308Z,976.2
2017-07-08T07:11:50.570Z,976.2
2017-07-08T07:12:52.900Z,976.1
2017-07-08T07:13:55.365Z,976.1
2017-07-08T07:14:57.733Z,976.2
2017-07-08T07:16:00.017Z,976.1
2017-07-08T07:17:02.402Z,976.1
2017-07-08T07:18:04.642Z,976.0
2017-07-08T07:19:06.993Z,976.0
2017-07-08T07:20:09.403Z,976.0
2017-07-08T07:21:11.859Z,976.0
2017-07-08T07:22:14.307Z,976.0
2017-07-08T07:23:16.743Z,976.1
2017-07-08T07:24:19.082Z,976.1
2017-07-08T07:25:21.411Z,976.2
2017-07-08T07:26:23.774Z,976.2
2017-07-08T07:27:26.019Z,976.3
2017-07-08T07:28:28.376Z,976.2
2017-07-08T07:29:30.696Z,976.3
2017-07-08T07:30:33.070Z,976.3
2017-07-08T07:31:35.429Z,976.3
2017-07-08T07:32:37.757Z,976.3
2017-07-08T07:33:40.084Z,976.3
2017-07-08T07:34:42.546Z,976.3
2017-07-08T07:35:45.034Z,976.3
2017-07-08T07:36:47.411Z,976.3
2017-07-08T07:37:49.905Z,976.4
2017-07-08T07:38:52.276Z,976.3
2017-07-08T07:39:54.556Z,976.2
2017-07-08T07:40:56.736Z,976.2
2017-07-08T07:41:59.046Z,976.2
2017-07-08T07:43:01.326Z,976.2
2017-07-08T07:44:03.679Z,976.3
2017-07-08T07:45:05.984Z,976.2
2017-07-08T07:46:08.307Z,976.2
2017-07-08T07:47:10.649Z,976.1
2017-07-08T07:48:13.117Z,976.1
2017-07-08T07:49:15.485Z,976.1
2017-07-08T07:50:17.790Z,976.0
2017-07-08T07:51:20.276Z,976.1
2017-07-08T07:52:22.628Z,976.1
2017-07-08T07:53:24.899Z,976.1
2017-07-08T07:54:27.221Z,976.1
2017-07-08T07:55:29.659Z,976.0
2017-07-08T07:56:31.899Z,976.0
2017-07-08T07:57:34.227Z,976.0
2017-07-08T07:58:36.697Z,976.0
2017-07-08T07:59:38.970Z,975.9
2017-07-08T08:00:41.414Z,975.9
2017-07-08T08:01:43.862Z,975.9
2017-07-08T08:02:46.239Z,976.0
2017-07-08T08:03:48.551Z,976.0
2017-07-08T08:04:50.845Z,976.0
2017-07-08T08:05:53.071Z,976.0
2017-07-08T08:06:55.592Z,976.0
2017-07-08T08:07:58.024Z,976.0
2017-07-08T08:09:00.473Z,976.0
2017-07-08T08:10:02.798Z,976.1
2017-07-08T08:11:05.191Z,976.0
2017-07-08T08:12:07.557Z,976.1
2017-07-08T08:13:10.019Z,976.1
2017-07-08T08:14:12.418Z,976.1
2017-07-08T08:15:14.872Z,976.1
2017-07-08T08:16:17.229Z,976.2
2017-07-08T08:17:19.741Z,976.1
2017-07-08T08:18:21.947Z,976.1
2017-07-08T08:19:24.388Z,976.2
2017-07-08T08:20:26.809Z,976.2
2017-07-08T08:21:29.159Z,976.2
2017-07-08T08:22:31.665Z,976.2
2017-07-08T08:23:34.174Z,976.2
2017-07-08T08:24:36.561Z,976.2
2017-07-08T08:25:39.015Z,976.3
2017-07-08T08:26:41.395Z,976.3
2017-07-08T08:27:44.163Z,976.4
2017-07-08T08:28:46.710Z,976.4
2017-07-08T08:29:49.075Z,976.4
2017-07-08T08:30:51.576Z,976.4
2017-07-08T08:31:53.933Z,976.4
2017-07-08T08:32:56.238Z,976.5
2017-07-08T08:33:58.795Z,976.5
2017-07-08T08:35:01.189Z,976.5
2017-07-08T08:36:03.557Z,976.5
2017-07-08T08:37:05.929Z,976.4
2017-07-08T08:38:08.380Z,976.4
2017-07-08T08:39:10.772Z,976.5
2017-07-08T08:40:13.170Z,976.5
2017-07-08T08:41:15.521Z,976.4
2017-07-08T08:42:17.935Z,976.5
2017-07-08T08:43:20.334Z,976.5
2017-07-08T08:44:22.778Z,976.5
2017-07-08T08:45:25.288Z,976.5
2017-07-08T08:46:27.639Z,976.5
2017-07-08T08:47:30.109Z,976.5
2017-07-08T08:48:33.405Z,976.5
2017-07-08T08:49:36.505Z,976.5
2017-07-08T08:50:40.123Z,976.5
2017-07-08T08:51:44.071Z,976.5
2017-07-08T08:52:48.161Z,976.6
2017-07-08T08:53:51.376Z,976.6
2017-07-08T08:54:54.666Z,976.6
2017-07-08T08:55:57.848Z,976.6
2017-07-08T08:57:01.174Z,976.5
2017-07-08T08:58:05.353Z,976.5
2017-07-08T08:59:08.539Z,976.5
2017-07-08T09:00:11.316Z,976.6
2017-07-08T09:01:14.540Z,976.6
2017-07-08T09:02:17.691Z,976.6
2017-07-08T09:03:21.028Z,976.5
2017-07-08T09:04:24.232Z,976.6
2017-07-08T09:05:27.446Z,976.6
2017-07-08T09:06:30.563Z,976.7
2017-07-08T09:07:33.730Z,976.8
2017-07-08T09:08:36.747Z,976.9
2017-07-08T09:09:40.036Z,977.2
2017-07-08T09:10:43.096Z,977.1
2017-07-08T09:11:46.235Z,977.1
2017-07-08T09:12:49.916Z,977.0
2017-07-08T09:13:53.292Z,976.9
2017-07-08T09:14:56.380Z,976.8
2017-07-08T09:16:00.421Z,976.7
2017-07-08T09:17:03.532Z,976.7
2017-07-08T09:18:06.613Z,976.6
2017-07-08T09:19:10.007Z,976.6
2017-07-08T09:20:12.974Z,976.6
2017-07-08T09:21:16.365Z,976.6
2017-07-08T09:22:19.496Z,976.7
2017-07-08T09:23:22.749Z,976.8
2017-07-08T09:24:26.054Z,976.9
2017-07-08T09:25:29.532Z,977.4
2017-07-08T09:26:33.103Z,976.9
2017-07-08T09:27:36.609Z,976.8
2017-07-08T09:28:39.993Z,976.9
2017-07-08T09:29:43.667Z,976.8
2017-07-08T09:30:47.075Z,976.8
2017-07-08T09:31:50.335Z,976.8
2017-07-08T09:32:53.610Z,977.3
2017-07-08T09:33:57.145Z,976.9
2017-07-08T09:35:00.552Z,977.1
2017-07-08T09:36:04.663Z,977.0
2017-07-08T09:37:08.045Z,977.0
2017-07-08T09:38:11.172Z,976.9
2017-07-08T09:39:14.304Z,976.9
2017-07-08T09:40:17.646Z,976.8
2017-07-08T09:41:20.597Z,976.7
2017-07-08T09:42:23.800Z,976.8
2017-07-08T09:43:27.258Z,976.7
2017-07-08T09:44:30.644Z,976.8
2017-07-08T09:45:33.794Z,976.9
2017-07-08T09:46:36.579Z,976.9
2017-07-08T09:47:39.719Z,976.9
2017-07-08T09:48:42.646Z,976.9
2017-07-08T09:49:45.768Z,976.9
2017-07-08T09:50:49.131Z,976.9
2017-07-08T09:52:06.265Z,976.7
2017-07-08T09:53:17.693Z,976.7
2017-07-08T09:54:34.753Z,976.8
2017-07-08T09:55:45.544Z,976.8
2017-07-08T09:56:55.199Z,976.8
2017-07-08T09:58:05.335Z,977.4
2017-07-08T09:59:14.398Z,977.0
2017-07-08T10:00:25.392Z,976.8
2017-07-08T10:01:37.307Z,976.9
2017-07-08T10:02:49.193Z,977.1
2017-07-08T10:04:01.797Z,977.0
2017-07-08T10:05:32.712Z,976.8
2017-07-08T10:06:52.209Z,976.6
2017-07-08T10:08:49.461Z,976.5
2017-07-08T10:10:12.828Z,976.6
2017-07-08T10:11:27.648Z,976.6
2017-07-08T10:13:14.339Z,976.6
2017-07-08T10:14:35.906Z,976.9
2017-07-08T10:15:50.213Z,977.0
2017-07-08T10:17:03.887Z,976.8
2017-07-08T10:18:23.798Z,976.8
2017-07-08T10:19:42.561Z,976.7
2017-07-08T10:24:03.267Z,976.9
2017-07-08T10:25:04.906Z,976.8
2017-07-08T10:26:06.526Z,976.8
2017-07-08T10:27:08.164Z,976.9
2017-07-08T10:28:09.815Z,976.8
2017-07-08T10:29:11.422Z,976.8
2017-07-08T10:30:13.050Z,976.6
2017-07-08T10:31:14.678Z,976.5
2017-07-08T10:32:16.565Z,976.5
2017-07-08T10:33:18.182Z,976.5
2017-07-08T10:34:19.820Z,976.5
2017-07-08T10:35:21.430Z,976.6
2017-07-08T10:36:23.081Z,976.7
2017-07-08T10:37:24.693Z,976.8
2017-07-08T10:38:26.317Z,976.7
2017-07-08T10:39:27.951Z,976.9
2017-07-08T10:40:29.575Z,976.9
2017-07-08T10:41:33.041Z,976.9
2017-07-08T10:42:34.821Z,976.8
2017-07-08T10:43:36.451Z,976.7
2017-07-08T10:44:38.051Z,976.8
2017-07-08T10:45:39.689Z,976.7
2017-07-08T10:46:41.334Z,976.7
2017-07-08T10:47:42.944Z,976.9
2017-07-08T10:48:44.593Z,976.9
2017-07-08T10:49:46.205Z,976.7
2017-07-08T10:50:47.861Z,976.7
2017-07-08T10:51:49.492Z,976.8
2017-07-08T10:52:51.091Z,976.7
2017-07-08T10:53:52.754Z,976.8
2017-07-08T10:54:54.357Z,976.7
2017-07-08T10:55:55.984Z,976.7
2017-07-08T10:56:57.617Z,976.7
2017-07-08T10:57:59.262Z,976.7
2017-07-08T10:59:00.895Z,976.7
2017-07-08T11:00:02.514Z,976.7
2017-07-08T11:01:04.123Z,976.7
2017-07-08T11:02:05.778Z,976.7
2017-07-08T11:03:07.384Z,976.8
2017-07-08T11:04:09.040Z,976.7
2017-07-08T11:05:10.642Z,976.7
2017-07-08T11:06:12.306Z,976.7
2017-07-08T11:07:13.919Z,976.7
2017-07-08T11:08:15.528Z,976.6
2017-07-08T11:09:17.157Z,976.6
2017-07-08T11:10:18.801Z,976.5
2017-07-08T11:11:20.438Z,976.6
2017-07-08T11:12:22.074Z,976.7
2017-07-08T11:13:23.700Z,976.7
2017-07-08T11:14:25.312Z,976.9
2017-07-08T11:15:26.942Z,976.9
2017-07-08T11:16:28.569Z,976.9
2017-07-08T11:17:30.222Z,976.9
2017-07-08T11:18:31.861Z,976.8
2017-07-08T11:19:33.461Z,976.8
2017-07-08T11:20:35.086Z,976.8
2017-07-08T11:21:37.003Z,976.7
2017-07-08T11:22:38.642Z,976.7
2017-07-08T11:23:40.274Z,976.5
2017-07-08T11:24:41.880Z,976.5
2017-07-08T11:25:43.531Z,976.5
2017-07-08T11:26:45.163Z,976.7
2017-07-08T11:27:46.789Z,976.4
2017-07-08T11:28:48.412Z,976.5
2017-07-08T11:29:50.045Z,976.7
2017-07-08T11:30:51.658Z,976.7
2017-07-08T11:31:53.295Z,976.4
2017-07-08T11:32:54.907Z,976.6
2017-07-08T11:33:56.548Z,976.6
2017-07-08T11:34:58.183Z,976.7
2017-07-08T11:35:59.803Z,976.7
2017-07-08T11:37:01.414Z,976.6
2017-07-08T11:38:03.067Z,976.5
2017-07-08T11:39:04.659Z,976.5
2017-07-08T11:40:06.305Z,976.4
2017-07-08T11:41:07.915Z,976.5
2017-07-08T11:42:09.544Z,976.3
2017-07-08T11:43:11.299Z,976.3
2017-07-08T11:44:13.074Z,976.3
2017-07-08T11:45:14.704Z,976.5
2017-07-08T11:46:16.350Z,976.5
2017-07-08T11:47:17.979Z,976.4
2017-07-08T11:48:19.587Z,976.4
2017-07-08T11:49:21.206Z,976.4
2017-07-08T11:50:22.857Z,976.5
2017-07-08T11:51:24.483Z,976.4
2017-07-08T11:52:26.130Z,976.4
2017-07-08T11:53:27.768Z,976.5
2017-07-08T11:54:29.394Z,976.6
2017-07-08T11:55:31.010Z,976.6
2017-07-08T11:56:32.621Z,976.6
2017-07-08T11:57:34.251Z,976.3
2017-07-08T11:58:35.876Z,976.5
2017-07-08T11:59:37.498Z,976.3
2017-07-08T12:00:39.157Z,976.3
2017-07-08T12:01:40.789Z,976.5
2017-07-08T12:02:42.408Z,976.5
2017-07-08T12:03:44.042Z,976.4
2017-07-08T12:04:45.658Z,976.4
2017-07-08T12:05:47.298Z,976.2
2017-07-08T12:06:48.891Z,976.2
2017-07-08T12:07:50.544Z,976.4
2017-07-08T12:08:52.159Z,976.3
2017-07-08T12:09:53.789Z,976.4
2017-07-08T12:10:55.423Z,976.5
2017-07-08T12:11:57.106Z,976.5
2017-07-08T12:12:58.732Z,976.6
2017-07-08T12:14:00.360Z,976.5
2017-07-08T12:15:01.981Z,976.4
2017-07-08T12:16:03.587Z,976.5
2017-07-08T12:17:05.224Z,976.5
2017-07-08T12:18:06.845Z,976.4
2017-07-08T12:19:08.503Z,976.3
2017-07-08T12:20:10.123Z,976.4
2017-07-08T12:21:11.749Z,976.7
2017-07-08T12:22:13.377Z,976.5
2017-07-08T12:23:14.982Z,976.6
2017-07-08T12:24:16.633Z,976.6
2017-07-08T12:25:18.259Z,976.5
2017-07-08T12:26:19.882Z,976.5
2017-07-08T12:27:21.514Z,976.4
2017-07-08T12:28:23.121Z,976.5
2017-07-08T12:29:24.753Z,976.4
2017-07-08T12:30:26.391Z,976.3
2017-07-08T12:31:28.079Z,976.4
2017-07-08T12:32:29.915Z,976.4
2017-07-08T12:33:31.565Z,976.4
2017-07-08T12:34:33.366Z,976.4
2017-07-08T12:35:35.177Z,976.3
2017-07-08T12:36:36.812Z,976.3
2017-07-08T12:37:38.438Z,976.4
2017-07-08T12:38:40.062Z,976.3
2017-07-08T12:39:41.693Z,976.1
2017-07-08T12:40:43.333Z,976.4
2017-07-08T12:41:44.962Z,976.4
2017-07-08T12:42:46.576Z,976.1
2017-07-08T12:43:48.206Z,976.1
2017-07-08T12:44:49.808Z,976.1
2017-07-08T12:45:51.462Z,976.4
2017-07-08T12:46:53.088Z,976.3
2017-07-08T12:47:54.696Z,976.4
2017-07-08T12:48:56.345Z,976.4
2017-07-08T12:49:57.946Z,976.4
2017-07-08T12:50:59.578Z,976.4
2017-07-08T12:52:01.226Z,976.4
2017-07-08T12:53:03.067Z,976.4
2017-07-08T12:54:04.740Z,976.5
2017-07-08T12:55:06.361Z,976.5
2017-07-08T12:56:07.994Z,976.2
2017-07-08T12:57:09.619Z,976.1
2017-07-08T12:58:11.265Z,976.3
2017-07-08T12:59:12.891Z,976.4
2017-07-08T13:00:14.511Z,976.3
2017-07-08T13:01:16.123Z,976.4
2017-07-08T13:02:17.749Z,976.4
2017-07-08T13:03:19.399Z,976.4
2017-07-08T13:04:21.027Z,976.4
2017-07-08T13:05:22.646Z,976.4
2017-07-08T13:06:24.281Z,976.3
2017-07-08T13:07:25.904Z,976.2
2017-07-08T13:08:27.533Z,976.4
2017-07-08T13:09:29.163Z,976.1
2017-07-08T13:10:30.765Z,976.1
2017-07-08T13:11:32.449Z,976.4
2017-07-08T13:12:34.084Z,976.5
2017-07-08T13:13:35.691Z,976.4
2017-07-08T13:14:37.314Z,976.0
2017-07-08T13:15:38.946Z,976.1
2017-07-08T13:16:40.580Z,976.3
2017-07-08T13:17:42.222Z,976.4
2017-07-08T13:18:43.843Z,976.5
2017-07-08T13:19:45.444Z,976.5
2017-07-08T13:20:47.101Z,976.4
2017-07-08T13:21:48.987Z,976.5
2017-07-08T13:22:50.610Z,976.5
2017-07-08T13:23:52.236Z,976.5
2017-07-08T13:24:53.875Z,976.4
2017-07-08T13:25:55.512Z,976.4
2017-07-08T13:26:57.146Z,976.4
2017-07-08T13:27:58.774Z,976.4
2017-07-08T13:29:00.397Z,976.4
2017-07-08T13:30:02.016Z,976.4